Capitol Logistics 200




KRFD
Chicago/Rockford International Airport
Rockford, Illinois
KDEN
Denver International Airport
Denver, Colorado

Activity Log

Date Flight Route Aircraft Duration
No Flights Yet

Route Details

Aircraft Information
Group: North America Fleet
Types: B738,B752,B762,B763
Route Data
Demand: M
Distance: 719nm
Duration: 1h 55m
Recm'd Route: DBQ J100 JORDY OBH BRWRY LAWGR2
Origin Wx: KRFD 272154Z 35006KT 10SM FEW031 OVC041 17/11 A2990 RMK AO2 SLP122 T01720111
Dest. Wx: KDEN 272153Z 11009KT 10SM SCT090 BKN150 BKN220 27/02 A2990 RMK AO2 LTG DSNT S AND SW SLP048 T02670017
Notes:

Financial History
Total Freight: 0lbs
Average Load: 0lbs/flt
Fuel Used: 0lbs
Avg. Fuel Used: 0lbs/flt
Fuel Expense: $0
Avg. Fuel Expense: $0
Avg. Fuel Cost: $0/lbs
Total Gross Income: $0
Pilot Pay: $0
Total Expenses: $0
Total Revenue: $0
Average Revenue: $0